createdAt,value
2023-03-25T00:01:09.249Z,7.34
2023-03-25T00:03:43.358Z,7.31
2023-03-25T00:06:12.552Z,7.30
2023-03-25T00:08:40.144Z,7.27
2023-03-25T00:11:08.524Z,7.30
2023-03-25T00:13:36.878Z,7.31
2023-03-25T00:16:07.222Z,7.24
2023-03-25T00:18:34.863Z,7.33
2023-03-25T00:21:10.888Z,7.27
2023-03-25T00:23:40.128Z,7.27
2023-03-25T00:26:08.315Z,7.22
2023-03-25T00:28:37.648Z,7.15
2023-03-25T00:31:12.796Z,7.21
2023-03-25T00:33:43.506Z,7.14
2023-03-25T00:36:13.870Z,7.11
2023-03-25T00:38:43.477Z,7.05
2023-03-25T00:41:25.954Z,7.03
2023-03-25T00:43:56.531Z,6.90
2023-03-25T00:46:26.815Z,6.91
2023-03-25T00:48:55.388Z,6.81
2023-03-25T00:51:24.054Z,6.78
2023-03-25T00:53:54.264Z,6.74
2023-03-25T00:56:23.501Z,6.69
2023-03-25T00:58:51.416Z,6.59
2023-03-25T01:01:27.531Z,6.53
2023-03-25T01:04:00.547Z,6.52
2023-03-25T01:06:35.269Z,6.54
2023-03-25T01:09:06.711Z,6.53
2023-03-25T01:11:35.101Z,6.47
2023-03-25T01:14:06.117Z,6.51
2023-03-25T01:16:34.205Z,6.49
2023-03-25T01:19:01.729Z,6.49
2023-03-25T01:21:29.434Z,6.49
2023-03-25T01:23:57.037Z,6.54
2023-03-25T01:26:24.647Z,6.56
2023-03-25T01:29:02.463Z,6.59
2023-03-25T01:31:31.685Z,6.61
2023-03-25T01:34:00.407Z,6.65
2023-03-25T01:36:29.785Z,6.69
2023-03-25T01:38:59.412Z,6.74
2023-03-25T01:41:33.227Z,6.79
2023-03-25T01:44:22.357Z,6.88
2023-03-25T01:46:53.672Z,6.87
2023-03-25T01:49:24.545Z,6.86
2023-03-25T01:51:59.115Z,6.92
2023-03-25T01:54:27.546Z,6.94
2023-03-25T01:56:56.183Z,6.97
2023-03-25T01:59:27.285Z,6.97
2023-03-25T02:02:03.342Z,7.05
2023-03-25T02:04:39.329Z,7.10
2023-03-25T02:07:11.532Z,7.15
2023-03-25T02:09:39.622Z,7.11
2023-03-25T02:12:08.066Z,7.21
2023-03-25T02:14:37.362Z,7.30
2023-03-25T02:17:43.383Z,7.39
2023-03-25T02:20:43.017Z,7.41
2023-03-25T02:23:22.215Z,7.42
2023-03-25T02:26:20.456Z,7.45
2023-03-25T02:28:56.243Z,7.38
2023-03-25T02:31:42.409Z,7.40
2023-03-25T02:34:33.512Z,7.49
2023-03-25T02:37:19.146Z,7.55
2023-03-25T02:39:59.915Z,7.55
2023-03-25T02:42:45.291Z,7.51
2023-03-25T02:45:21.096Z,7.53
2023-03-25T02:47:55.751Z,7.54
2023-03-25T02:50:33.848Z,7.56
2023-03-25T02:53:10.961Z,7.55
2023-03-25T02:55:42.504Z,7.59
2023-03-25T02:58:13.562Z,7.65
2023-03-25T03:00:43.372Z,7.70
2023-03-25T03:03:11.161Z,7.67
2023-03-25T03:05:44.433Z,7.69
2023-03-25T03:08:30.564Z,7.73
2023-03-25T03:11:20.569Z,7.85
2023-03-25T03:14:00.104Z,7.82
2023-03-25T03:16:58.587Z,7.85
2023-03-25T03:19:47.900Z,7.90
2023-03-25T03:22:36.764Z,7.93
2023-03-25T03:25:14.821Z,7.96
2023-03-25T03:28:16.595Z,8.05
2023-03-25T03:30:54.526Z,8.04
2023-03-25T03:33:57.744Z,8.18
2023-03-25T03:36:33.194Z,8.12
2023-03-25T03:39:09.923Z,8.08
2023-03-25T03:41:42.127Z,8.08
2023-03-25T03:44:19.156Z,8.19
2023-03-25T03:46:54.746Z,8.25
2023-03-25T03:49:28.722Z,8.29
2023-03-25T03:52:13.906Z,8.30
2023-03-25T03:55:00.802Z,8.30
2023-03-25T03:57:35.897Z,8.39
2023-03-25T04:00:30.984Z,8.41
2023-03-25T04:03:10.635Z,8.39
2023-03-25T04:05:39.311Z,8.43
2023-03-25T04:08:15.003Z,8.43
2023-03-25T04:10:52.751Z,8.43
2023-03-25T04:13:23.580Z,8.47
2023-03-25T04:15:51.478Z,8.49
2023-03-25T04:18:23.480Z,8.49
2023-03-25T04:20:51.104Z,8.44
2023-03-25T04:23:18.601Z,8.49
2023-03-25T04:25:53.556Z,8.52
2023-03-25T04:28:24.079Z,8.48
2023-03-25T04:30:57.113Z,8.48
2023-03-25T04:33:25.400Z,8.45
2023-03-25T04:35:53.501Z,8.38
2023-03-25T04:38:22.467Z,8.40
2023-03-25T04:40:49.951Z,8.39
2023-03-25T04:43:17.873Z,8.47
2023-03-25T04:45:54.535Z,8.45
2023-03-25T04:48:31.599Z,8.59
2023-03-25T04:51:03.722Z,8.63
2023-03-25T04:53:31.431Z,8.58
2023-03-25T04:55:58.921Z,8.61
2023-03-25T04:58:26.815Z,8.64
2023-03-25T05:00:54.634Z,8.72
2023-03-25T05:03:24.637Z,8.74
2023-03-25T05:05:53.626Z,8.84
2023-03-25T05:08:22.560Z,8.83
2023-03-25T05:10:50.343Z,8.90
2023-03-25T05:13:18.496Z,8.97
2023-03-25T05:15:46.079Z,9.08
2023-03-25T05:18:16.330Z,9.21
2023-03-25T05:20:47.041Z,9.25
2023-03-25T05:23:18.165Z,9.34
2023-03-25T05:25:50.999Z,9.38
2023-03-25T05:28:19.653Z,9.37
2023-03-25T05:30:47.976Z,9.36
2023-03-25T05:33:17.764Z,9.41
2023-03-25T05:35:46.106Z,9.44
2023-03-25T05:38:18.418Z,9.54
2023-03-25T05:40:47.036Z,9.54
2023-03-25T05:43:16.361Z,9.60
2023-03-25T05:45:45.160Z,9.66
2023-03-25T05:48:13.495Z,9.57
2023-03-25T05:50:44.031Z,9.50
2023-03-25T05:53:13.699Z,9.51
2023-03-25T05:55:42.303Z,9.52
2023-03-25T05:58:09.915Z,9.56
2023-03-25T06:00:37.610Z,9.63
2023-03-25T06:03:08.641Z,9.72
2023-03-25T06:05:39.413Z,9.85
2023-03-25T06:08:07.555Z,9.96
2023-03-25T06:10:35.253Z,10.12
2023-03-25T06:13:02.923Z,10.22
2023-03-25T06:15:33.870Z,10.36
2023-03-25T06:18:01.758Z,10.54
2023-03-25T06:20:29.351Z,10.74
2023-03-25T06:22:57.006Z,10.85
2023-03-25T06:25:26.853Z,10.95
2023-03-25T06:27:56.238Z,10.98
2023-03-25T06:30:23.831Z,10.81
2023-03-25T06:32:55.939Z,10.66
2023-03-25T06:35:23.737Z,10.54
2023-03-25T06:37:51.289Z,10.44
2023-03-25T06:40:27.972Z,10.44
2023-03-25T06:42:56.074Z,10.40
2023-03-25T06:45:35.879Z,10.34
2023-03-25T06:48:32.562Z,10.16
2023-03-25T06:51:00.327Z,10.15
2023-03-25T06:53:28.047Z,10.09
2023-03-25T06:56:11.760Z,10.01
2023-03-25T06:58:41.725Z,10.06
2023-03-25T07:01:09.744Z,9.95
2023-03-25T07:03:38.298Z,9.90
2023-03-25T07:06:06.827Z,9.75
2023-03-25T07:08:36.968Z,9.77
2023-03-25T07:11:07.478Z,9.69
2023-03-25T07:13:35.617Z,9.61
2023-03-25T07:16:03.386Z,9.70
2023-03-25T07:18:31.254Z,9.73
2023-03-25T07:20:59.346Z,9.68
2023-03-25T07:23:26.940Z,9.70
2023-03-25T07:25:55.303Z,9.73
2023-03-25T07:28:23.173Z,9.88
2023-03-25T07:30:50.937Z,9.86
2023-03-25T07:33:18.481Z,9.87
2023-03-25T07:35:46.129Z,9.81
2023-03-25T07:38:13.739Z,9.81
2023-03-25T07:40:41.306Z,9.81
2023-03-25T07:43:08.896Z,9.79
2023-03-25T07:45:44.843Z,9.84
2023-03-25T07:48:16.442Z,9.82
2023-03-25T07:50:45.812Z,9.80
2023-03-25T07:53:13.321Z,9.71
2023-03-25T07:55:41.085Z,9.73
2023-03-25T07:58:08.634Z,9.75
2023-03-25T08:00:36.203Z,9.80
2023-03-25T08:03:04.067Z,9.71
2023-03-25T08:05:31.711Z,9.84
2023-03-25T08:08:02.307Z,9.84
2023-03-25T08:10:29.916Z,9.86
2023-03-25T08:12:57.569Z,9.88
2023-03-25T08:15:25.185Z,9.93
2023-03-25T08:17:55.644Z,9.82
2023-03-25T08:20:24.215Z,9.75
2023-03-25T08:22:52.559Z,9.75
2023-03-25T08:25:20.062Z,9.65
2023-03-25T08:27:47.780Z,9.59
2023-03-25T08:30:17.242Z,9.61
2023-03-25T08:32:46.676Z,9.65
2023-03-25T08:35:15.044Z,9.59
2023-03-25T08:37:42.656Z,9.68
2023-03-25T08:40:10.605Z,9.67
2023-03-25T08:42:38.817Z,9.66
2023-03-25T08:45:07.354Z,9.68
2023-03-25T08:47:36.044Z,9.72
2023-03-25T08:50:04.707Z,9.72
2023-03-25T08:52:32.225Z,9.84
2023-03-25T08:54:59.884Z,9.93
2023-03-25T08:57:27.380Z,9.93
2023-03-25T08:59:54.982Z,9.96
2023-03-25T09:02:22.479Z,10.02
2023-03-25T09:04:50.122Z,9.99
2023-03-25T09:07:19.960Z,10.00
2023-03-25T09:09:47.649Z,10.05
2023-03-25T09:12:15.493Z,10.09
2023-03-25T09:14:43.128Z,10.21
2023-03-25T09:17:11.280Z,10.28
2023-03-25T09:19:38.996Z,10.31
2023-03-25T09:22:07.214Z,10.38
2023-03-25T09:24:35.874Z,10.39
2023-03-25T09:27:04.012Z,10.45
2023-03-25T09:29:31.566Z,10.43
2023-03-25T09:31:59.861Z,10.40
2023-03-25T09:34:28.300Z,10.39
2023-03-25T09:36:56.402Z,10.40
2023-03-25T09:39:24.162Z,10.41
2023-03-25T09:42:06.673Z,10.51
2023-03-25T09:44:52.710Z,10.53
2023-03-25T09:47:22.648Z,10.39
2023-03-25T09:49:55.895Z,10.42
2023-03-25T09:52:36.801Z,10.55
2023-03-25T09:55:15.652Z,10.73
2023-03-25T09:57:49.301Z,10.95
2023-03-25T10:00:22.632Z,11.00
2023-03-25T10:02:54.154Z,11.05
2023-03-25T10:05:42.954Z,11.13
2023-03-25T10:08:28.827Z,11.04
2023-03-25T10:11:10.971Z,11.08
2023-03-25T10:13:54.568Z,11.11
2023-03-25T10:16:28.013Z,11.22
2023-03-25T10:18:55.564Z,11.26
2023-03-25T10:21:46.899Z,11.27
2023-03-25T10:24:20.468Z,11.28
2023-03-25T10:26:57.856Z,11.37
2023-03-25T10:29:38.229Z,11.44
2023-03-25T10:32:41.677Z,11.49
2023-03-25T10:35:38.251Z,11.50
2023-03-25T10:38:46.541Z,11.57
2023-03-25T10:42:41.501Z,11.60
2023-03-25T10:45:14.660Z,11.48
2023-03-25T10:47:44.765Z,11.27
2023-03-25T10:50:20.709Z,11.38
2023-03-25T10:52:51.790Z,11.36
2023-03-25T11:03:40.706Z,11.66
2023-03-25T11:06:21.400Z,11.68
2023-03-25T11:09:18.383Z,11.76
2023-03-25T11:11:47.596Z,11.63
2023-03-25T11:14:15.981Z,11.68
2023-03-25T11:17:18.636Z,11.57
2023-03-25T11:19:52.910Z,11.74
2023-03-25T11:23:10.049Z,11.74
2023-03-25T11:34:11.144Z,11.73
2023-03-25T11:37:23.419Z,11.62
2023-03-25T11:40:15.209Z,11.67
2023-03-25T11:42:57.167Z,11.83
2023-03-25T11:46:07.218Z,11.93
2023-03-25T11:49:23.526Z,11.95
2023-03-25T11:51:58.087Z,11.82
2023-03-25T11:54:27.454Z,11.75
2023-03-25T11:56:56.577Z,11.79
2023-03-25T11:59:37.359Z,11.76
2023-03-25T12:02:38.364Z,11.81
2023-03-25T12:05:09.159Z,11.65
2023-03-25T12:08:05.527Z,11.72
2023-03-25T12:10:39.283Z,11.53
2023-03-25T12:13:24.252Z,11.64
2023-03-25T12:16:01.298Z,11.66
2023-03-25T12:19:11.654Z,11.69
2023-03-25T12:21:44.844Z,11.68
2023-03-25T12:24:32.801Z,11.77
2023-03-25T12:27:14.968Z,11.81
2023-03-25T12:30:04.253Z,11.84
2023-03-25T12:32:37.677Z,11.80
2023-03-25T12:35:20.057Z,11.79
2023-03-25T12:37:53.944Z,11.87
2023-03-25T12:40:33.689Z,11.99
2023-03-25T12:43:31.498Z,12.04
2023-03-25T12:46:17.423Z,12.16
2023-03-25T12:48:58.769Z,12.13
2023-03-25T12:51:26.299Z,12.13
2023-03-25T12:54:19.882Z,12.26
2023-03-25T12:56:59.520Z,12.18
2023-03-25T12:59:38.106Z,12.07
2023-03-25T13:02:27.213Z,12.01
2023-03-25T13:05:16.091Z,11.89
2023-03-25T13:07:49.161Z,11.85
2023-03-25T13:10:18.441Z,11.91
2023-03-25T13:13:01.646Z,11.95
2023-03-25T13:15:44.169Z,11.93
2023-03-25T13:18:30.275Z,11.94
2023-03-25T13:21:00.769Z,11.88
2023-03-25T13:23:33.250Z,11.84
2023-03-25T13:26:11.947Z,11.88
2023-03-25T13:28:56.178Z,11.84
2023-03-25T13:31:27.734Z,11.90
2023-03-25T13:34:02.105Z,12.05
2023-03-25T13:36:34.594Z,12.00
2023-03-25T13:39:10.694Z,12.03
2023-03-25T13:41:42.873Z,12.05
2023-03-25T13:44:20.400Z,12.07
2023-03-25T13:46:53.947Z,12.08
2023-03-25T13:49:30.353Z,12.08
2023-03-25T13:51:58.851Z,12.10
2023-03-25T13:54:38.338Z,12.06
2023-03-25T13:57:18.402Z,12.06
2023-03-25T14:00:11.810Z,12.03
2023-03-25T14:02:44.803Z,12.03
2023-03-25T14:05:34.294Z,12.12
2023-03-25T14:08:52.864Z,12.20
2023-03-25T14:11:30.567Z,12.11
2023-03-25T14:14:07.236Z,12.10
2023-03-25T14:16:39.181Z,12.03
2023-03-25T14:19:16.860Z,12.00
2023-03-25T14:21:52.085Z,11.89
2023-03-25T14:24:31.628Z,11.79
2023-03-25T14:27:05.870Z,11.73
2023-03-25T14:29:42.254Z,11.64
2023-03-25T14:32:09.735Z,11.64
2023-03-25T14:34:39.398Z,11.62
2023-03-25T14:37:07.947Z,11.61
2023-03-25T14:39:35.770Z,11.67
2023-03-25T14:42:11.283Z,11.70
2023-03-25T14:44:49.550Z,11.60
2023-03-25T14:47:20.485Z,11.54
2023-03-25T14:50:01.636Z,11.50
2023-03-25T14:52:43.914Z,11.52
2023-03-25T14:55:28.664Z,11.51
2023-03-25T14:58:17.795Z,11.68
2023-03-25T15:00:55.242Z,11.43
2023-03-25T15:03:33.971Z,11.53
2023-03-25T15:06:02.793Z,11.39
2023-03-25T15:08:38.305Z,11.42
2023-03-25T15:11:33.469Z,11.52
2023-03-25T15:14:25.274Z,11.36
2023-03-25T15:17:05.839Z,11.31
2023-03-25T15:19:59.255Z,11.29
2023-03-25T15:22:30.570Z,11.15
2023-03-25T15:25:00.717Z,11.17
2023-03-25T15:27:42.100Z,11.13
2023-03-25T15:30:51.804Z,11.26
2023-03-25T15:33:46.294Z,11.20
2023-03-25T15:36:51.102Z,11.21
2023-03-25T15:40:06.671Z,11.17
2023-03-25T15:43:13.881Z,11.08
2023-03-25T15:46:25.605Z,11.12
2023-03-25T15:49:06.602Z,11.01
2023-03-25T15:51:50.727Z,10.94
2023-03-25T15:54:45.626Z,10.97
2023-03-25T15:57:28.327Z,10.85
2023-03-25T15:59:59.987Z,10.83
2023-03-25T16:02:48.733Z,10.84
2023-03-25T16:05:20.273Z,10.78
2023-03-25T16:07:49.274Z,10.75
2023-03-25T16:11:19.947Z,10.79
2023-03-25T16:15:14.319Z,10.69
2023-03-25T16:19:15.889Z,10.65
2023-03-25T16:39:27.203Z,10.37
2023-03-25T16:42:34.759Z,10.41
2023-03-25T16:45:06.635Z,10.26
2023-03-25T16:47:34.459Z,10.27
2023-03-25T16:50:03.781Z,10.26
2023-03-25T16:52:34.207Z,10.20
2023-03-25T16:55:01.581Z,10.15
2023-03-25T16:57:33.745Z,10.09
2023-03-25T17:00:17.592Z,10.19
2023-03-25T17:02:48.632Z,10.13
2023-03-25T17:05:19.013Z,10.11
2023-03-25T17:07:49.614Z,10.09
2023-03-25T17:10:27.526Z,10.09
2023-03-25T17:13:10.763Z,10.11
2023-03-25T17:15:38.529Z,10.06
2023-03-25T17:18:14.522Z,10.07
2023-03-25T17:20:45.028Z,10.07
2023-03-25T17:23:20.941Z,10.07
2023-03-25T17:25:54.968Z,9.96
2023-03-25T17:28:28.820Z,10.00
2023-03-25T17:30:56.794Z,9.97
2023-03-25T17:33:30.157Z,9.99
2023-03-25T17:35:57.972Z,9.96
2023-03-25T17:38:27.874Z,9.95
2023-03-25T17:41:10.046Z,10.00
2023-03-25T17:43:44.090Z,9.93
2023-03-25T17:46:16.289Z,9.92
2023-03-25T17:48:43.804Z,9.85
2023-03-25T17:51:13.565Z,9.80
2023-03-25T17:53:41.151Z,9.86
2023-03-25T17:56:12.459Z,9.81
2023-03-25T17:58:40.174Z,9.79
2023-03-25T18:01:08.371Z,9.81
2023-03-25T18:03:36.395Z,9.75
2023-03-25T18:06:05.396Z,9.78
2023-03-25T18:08:33.505Z,9.74
2023-03-25T18:11:01.871Z,9.75
2023-03-25T18:13:29.547Z,9.72
2023-03-25T18:15:57.238Z,9.73
2023-03-25T18:18:26.355Z,9.74
2023-03-25T18:21:00.353Z,9.74
2023-03-25T18:23:28.461Z,9.67
2023-03-25T18:25:56.375Z,9.83
2023-03-25T18:28:25.251Z,9.84
2023-03-25T18:30:55.580Z,9.77
2023-03-25T18:33:24.320Z,9.80
2023-03-25T18:35:58.967Z,9.80
2023-03-25T18:38:27.931Z,9.81
2023-03-25T18:40:57.364Z,9.82
2023-03-25T18:43:24.819Z,9.84
2023-03-25T18:45:52.808Z,9.82
2023-03-25T18:48:21.563Z,9.82
2023-03-25T18:50:59.405Z,9.85
2023-03-25T18:53:29.123Z,9.84
2023-03-25T18:56:02.501Z,9.83
2023-03-25T18:58:32.182Z,9.87
2023-03-25T19:01:01.169Z,9.90
2023-03-25T19:03:38.476Z,9.90
2023-03-25T19:06:11.884Z,9.90
2023-03-25T19:08:54.254Z,9.92
2023-03-25T19:11:22.528Z,9.89
2023-03-25T19:13:51.240Z,9.92
2023-03-25T19:16:19.712Z,9.93
2023-03-25T19:18:47.700Z,10.01
2023-03-25T19:21:19.721Z,9.99
2023-03-25T19:23:47.610Z,10.02
2023-03-25T19:26:15.118Z,9.99
2023-03-25T19:28:42.893Z,9.98
2023-03-25T19:31:15.717Z,10.04
2023-03-25T19:33:43.538Z,10.00
2023-03-25T19:36:16.476Z,9.99
2023-03-25T19:38:44.082Z,10.00
2023-03-25T19:41:14.085Z,9.99
2023-03-25T19:43:41.861Z,9.96
2023-03-25T19:46:09.910Z,9.98
2023-03-25T19:48:38.736Z,10.01
2023-03-25T19:51:07.137Z,9.97
2023-03-25T19:53:34.780Z,9.98
2023-03-25T19:56:04.738Z,9.96
2023-03-25T19:58:32.775Z,9.94
2023-03-25T20:01:00.281Z,9.92
2023-03-25T20:03:31.563Z,9.91
2023-03-25T20:06:00.782Z,9.87
2023-03-25T20:08:30.056Z,9.89
2023-03-25T20:10:57.777Z,9.89
2023-03-25T20:13:25.852Z,9.85
2023-03-25T20:15:53.808Z,9.86
2023-03-25T20:18:21.552Z,9.84
2023-03-25T20:20:49.234Z,9.79
2023-03-25T20:23:16.758Z,9.83
2023-03-25T20:25:44.577Z,9.80
2023-03-25T20:28:12.158Z,9.74
2023-03-25T20:30:39.939Z,9.75
2023-03-25T20:33:07.434Z,9.77
2023-03-25T20:35:35.216Z,9.81
2023-03-25T20:38:03.910Z,9.81
2023-03-25T20:40:43.445Z,9.77
2023-03-25T20:43:14.309Z,9.81
2023-03-25T20:45:43.681Z,9.78
2023-03-25T20:48:11.432Z,9.84
2023-03-25T20:50:39.186Z,9.81
2023-03-25T20:53:09.367Z,9.76
2023-03-25T20:55:37.527Z,9.74
2023-03-25T20:58:06.372Z,9.74
2023-03-25T21:00:34.525Z,9.73
2023-03-25T21:03:10.951Z,9.70
2023-03-25T21:05:45.186Z,9.73
2023-03-25T21:08:13.582Z,9.70
2023-03-25T21:10:47.848Z,9.70
2023-03-25T21:13:15.537Z,9.72
2023-03-25T21:15:43.014Z,9.69
2023-03-25T21:18:10.643Z,9.68
2023-03-25T21:20:39.775Z,9.67
2023-03-25T21:23:07.205Z,9.63
2023-03-25T21:25:35.228Z,9.62
2023-03-25T21:28:04.859Z,9.59
2023-03-25T21:30:32.620Z,9.62
2023-03-25T21:33:00.267Z,9.59
2023-03-25T21:35:28.652Z,9.62
2023-03-25T21:37:56.255Z,9.65
2023-03-25T21:40:23.741Z,9.67
2023-03-25T21:42:51.292Z,9.64
2023-03-25T21:45:19.436Z,9.66
2023-03-25T21:47:53.549Z,9.66
2023-03-25T21:50:21.744Z,9.64
2023-03-25T21:52:49.226Z,9.59
2023-03-25T21:55:17.363Z,9.61
2023-03-25T21:57:45.265Z,9.60
2023-03-25T22:00:16.731Z,9.57
2023-03-25T22:02:47.074Z,9.58
2023-03-25T22:05:16.653Z,9.55
2023-03-25T22:07:44.369Z,9.60
2023-03-25T22:10:12.122Z,9.58
2023-03-25T22:12:39.749Z,9.56
2023-03-25T22:15:08.072Z,9.55
2023-03-25T22:17:35.693Z,9.52
2023-03-25T22:20:05.407Z,9.52
2023-03-25T22:22:33.167Z,9.48
2023-03-25T22:25:00.665Z,9.50
2023-03-25T22:27:28.136Z,9.49
2023-03-25T22:29:55.769Z,9.46
2023-03-25T22:32:27.184Z,9.46
2023-03-25T22:34:54.952Z,9.44
2023-03-25T22:37:22.543Z,9.42
2023-03-25T22:39:50.525Z,9.39
2023-03-25T22:42:18.091Z,9.37
2023-03-25T22:44:45.807Z,9.37
2023-03-25T22:47:13.266Z,9.36
2023-03-25T22:49:40.963Z,9.33
2023-03-25T22:52:08.510Z,9.31
2023-03-25T22:54:36.094Z,9.33
2023-03-25T22:57:03.681Z,9.31
2023-03-25T22:59:31.405Z,9.29
2023-03-25T23:01:58.854Z,9.29
2023-03-25T23:04:26.472Z,9.29
2023-03-25T23:07:05.043Z,9.24
2023-03-25T23:09:42.388Z,9.23
2023-03-25T23:12:16.042Z,9.25
2023-03-25T23:14:49.410Z,9.25
2023-03-25T23:17:17.236Z,9.22
2023-03-25T23:19:45.656Z,9.16
2023-03-25T23:22:14.497Z,9.19
2023-03-25T23:24:42.286Z,9.14
2023-03-25T23:27:11.682Z,9.12
2023-03-25T23:29:40.067Z,9.15
2023-03-25T23:32:09.790Z,9.13
2023-03-25T23:34:38.689Z,9.14
2023-03-25T23:37:07.778Z,9.15
2023-03-25T23:39:35.817Z,9.17
2023-03-25T23:42:03.325Z,9.16
2023-03-25T23:44:31.262Z,9.16
2023-03-25T23:46:58.821Z,9.18
2023-03-25T23:49:34.091Z,9.14
2023-03-25T23:52:01.591Z,9.15
2023-03-25T23:54:29.263Z,9.13
2023-03-25T23:56:57.148Z,9.14
2023-03-25T23:59:24.647Z,9.12
